sensor_id;sensor_type;location;lat;lon;timestamp;P1;durP1;ratioP1;P2;durP2;ratioP2
22543;SDS011;11438;52.044;8.716;2023-03-03T00:00:39;14.27;;;8.77;;
22543;SDS011;11438;52.044;8.716;2023-03-03T00:03:05;14.80;;;8.57;;
22543;SDS011;11438;52.044;8.716;2023-03-03T00:05:33;12.77;;;8.00;;
22543;SDS011;11438;52.044;8.716;2023-03-03T00:07:59;14.87;;;8.80;;
22543;SDS011;11438;52.044;8.716;2023-03-03T00:10:26;12.03;;;7.93;;
22543;SDS011;11438;52.044;8.716;2023-03-03T00:12:51;12.80;;;8.13;;
22543;SDS011;11438;52.044;8.716;2023-03-03T00:15:18;12.47;;;8.10;;
22543;SDS011;11438;52.044;8.716;2023-03-03T00:17:46;14.80;;;8.13;;
22543;SDS011;11438;52.044;8.716;2023-03-03T00:25:43;14.33;;;8.13;;
22543;SDS011;11438;52.044;8.716;2023-03-03T00:28:23;13.97;;;8.03;;
22543;SDS011;11438;52.044;8.716;2023-03-03T00:30:51;14.07;;;8.47;;
22543;SDS011;11438;52.044;8.716;2023-03-03T00:33:21;13.90;;;8.23;;
22543;SDS011;11438;52.044;8.716;2023-03-03T00:35:52;13.63;;;8.43;;
22543;SDS011;11438;52.044;8.716;2023-03-03T00:38:19;11.63;;;7.60;;
22543;SDS011;11438;52.044;8.716;2023-03-03T00:40:45;12.93;;;8.30;;
22543;SDS011;11438;52.044;8.716;2023-03-03T00:43:14;13.07;;;7.73;;
22543;SDS011;11438;52.044;8.716;2023-03-03T00:45:45;13.30;;;7.80;;
22543;SDS011;11438;52.044;8.716;2023-03-03T00:48:18;13.93;;;8.00;;
22543;SDS011;11438;52.044;8.716;2023-03-03T00:50:51;13.13;;;7.83;;
22543;SDS011;11438;52.044;8.716;2023-03-03T00:53:19;13.13;;;8.67;;
22543;SDS011;11438;52.044;8.716;2023-03-03T00:55:47;13.87;;;8.63;;
22543;SDS011;11438;52.044;8.716;2023-03-03T00:58:14;17.57;;;10.13;;
22543;SDS011;11438;52.044;8.716;2023-03-03T01:00:40;15.47;;;9.83;;
22543;SDS011;11438;52.044;8.716;2023-03-03T01:03:07;14.87;;;9.80;;
22543;SDS011;11438;52.044;8.716;2023-03-03T01:05:34;15.93;;;9.33;;
22543;SDS011;11438;52.044;8.716;2023-03-03T01:08:00;15.47;;;8.77;;
22543;SDS011;11438;52.044;8.716;2023-03-03T01:10:27;17.50;;;9.53;;
22543;SDS011;11438;52.044;8.716;2023-03-03T01:12:56;15.00;;;9.37;;
22543;SDS011;11438;52.044;8.716;2023-03-03T01:15:22;16.47;;;9.60;;
22543;SDS011;11438;52.044;8.716;2023-03-03T01:17:48;13.30;;;9.10;;
22543;SDS011;11438;52.044;8.716;2023-03-03T01:20:16;15.60;;;8.87;;
22543;SDS011;11438;52.044;8.716;2023-03-03T01:22:42;15.07;;;9.33;;
22543;SDS011;11438;52.044;8.716;2023-03-03T01:25:07;16.23;;;9.83;;
22543;SDS011;11438;52.044;8.716;2023-03-03T01:27:33;17.37;;;10.17;;
22543;SDS011;11438;52.044;8.716;2023-03-03T01:29:59;15.20;;;9.33;;
22543;SDS011;11438;52.044;8.716;2023-03-03T01:32:26;14.23;;;8.63;;
22543;SDS011;11438;52.044;8.716;2023-03-03T01:34:52;13.20;;;8.20;;
22543;SDS011;11438;52.044;8.716;2023-03-03T01:37:18;14.47;;;8.70;;
22543;SDS011;11438;52.044;8.716;2023-03-03T01:39:48;14.20;;;8.63;;
22543;SDS011;11438;52.044;8.716;2023-03-03T01:42:14;14.57;;;8.63;;
22543;SDS011;11438;52.044;8.716;2023-03-03T01:44:40;14.57;;;9.17;;
22543;SDS011;11438;52.044;8.716;2023-03-03T01:47:12;14.57;;;8.97;;
22543;SDS011;11438;52.044;8.716;2023-03-03T01:52:26;16.20;;;9.43;;
22543;SDS011;11438;52.044;8.716;2023-03-03T01:54:54;14.50;;;8.87;;
22543;SDS011;11438;52.044;8.716;2023-03-03T01:57:26;16.50;;;9.13;;
22543;SDS011;11438;52.044;8.716;2023-03-03T01:59:57;13.67;;;8.57;;
22543;SDS011;11438;52.044;8.716;2023-03-03T02:02:26;14.60;;;8.43;;
22543;SDS011;11438;52.044;8.716;2023-03-03T02:04:52;13.20;;;8.47;;
22543;SDS011;11438;52.044;8.716;2023-03-03T02:07:18;13.30;;;8.60;;
22543;SDS011;11438;52.044;8.716;2023-03-03T02:09:51;16.00;;;9.40;;
22543;SDS011;11438;52.044;8.716;2023-03-03T02:12:47;17.03;;;9.73;;
22543;SDS011;11438;52.044;8.716;2023-03-03T02:15:32;15.87;;;9.93;;
22543;SDS011;11438;52.044;8.716;2023-03-03T02:18:03;17.03;;;9.77;;
22543;SDS011;11438;52.044;8.716;2023-03-03T02:20:40;21.03;;;11.13;;
22543;SDS011;11438;52.044;8.716;2023-03-03T02:25:58;17.07;;;10.20;;
22543;SDS011;11438;52.044;8.716;2023-03-03T02:28:31;19.10;;;10.93;;
22543;SDS011;11438;52.044;8.716;2023-03-03T02:30:58;17.37;;;9.90;;
22543;SDS011;11438;52.044;8.716;2023-03-03T02:33:24;17.60;;;10.27;;
22543;SDS011;11438;52.044;8.716;2023-03-03T02:35:50;15.87;;;9.70;;
22543;SDS011;11438;52.044;8.716;2023-03-03T02:41:12;15.70;;;9.10;;
22543;SDS011;11438;52.044;8.716;2023-03-03T02:44:00;15.87;;;9.57;;
22543;SDS011;11438;52.044;8.716;2023-03-03T02:46:28;16.20;;;9.60;;
22543;SDS011;11438;52.044;8.716;2023-03-03T02:48:57;17.30;;;9.60;;
22543;SDS011;11438;52.044;8.716;2023-03-03T02:51:23;17.37;;;10.23;;
22543;SDS011;11438;52.044;8.716;2023-03-03T02:53:48;14.70;;;8.87;;
22543;SDS011;11438;52.044;8.716;2023-03-03T02:56:14;18.00;;;10.17;;
22543;SDS011;11438;52.044;8.716;2023-03-03T02:58:40;16.60;;;9.87;;
22543;SDS011;11438;52.044;8.716;2023-03-03T03:01:05;16.33;;;9.37;;
22543;SDS011;11438;52.044;8.716;2023-03-03T03:03:31;15.97;;;9.67;;
22543;SDS011;11438;52.044;8.716;2023-03-03T03:05:57;14.27;;;9.30;;
22543;SDS011;11438;52.044;8.716;2023-03-03T03:08:22;18.53;;;10.80;;
22543;SDS011;11438;52.044;8.716;2023-03-03T03:10:48;19.03;;;11.83;;
22543;SDS011;11438;52.044;8.716;2023-03-03T03:13:14;19.20;;;11.20;;
22543;SDS011;11438;52.044;8.716;2023-03-03T03:15:39;19.03;;;10.13;;
22543;SDS011;11438;52.044;8.716;2023-03-03T03:18:05;17.97;;;10.30;;
22543;SDS011;11438;52.044;8.716;2023-03-03T03:20:31;19.57;;;11.50;;
22543;SDS011;11438;52.044;8.716;2023-03-03T03:23:01;19.23;;;10.33;;
22543;SDS011;11438;52.044;8.716;2023-03-03T03:25:27;16.87;;;10.50;;
22543;SDS011;11438;52.044;8.716;2023-03-03T03:27:52;20.67;;;10.70;;
22543;SDS011;11438;52.044;8.716;2023-03-03T03:30:18;22.20;;;10.97;;
22543;SDS011;11438;52.044;8.716;2023-03-03T03:32:44;20.93;;;10.87;;
22543;SDS011;11438;52.044;8.716;2023-03-03T03:35:10;22.33;;;10.90;;
22543;SDS011;11438;52.044;8.716;2023-03-03T03:37:36;22.77;;;11.93;;
22543;SDS011;11438;52.044;8.716;2023-03-03T03:40:02;27.53;;;13.50;;
22543;SDS011;11438;52.044;8.716;2023-03-03T03:42:28;25.20;;;12.13;;
22543;SDS011;11438;52.044;8.716;2023-03-03T03:44:53;26.23;;;12.70;;
22543;SDS011;11438;52.044;8.716;2023-03-03T03:47:19;23.50;;;11.47;;
22543;SDS011;11438;52.044;8.716;2023-03-03T03:49:44;25.87;;;12.03;;
22543;SDS011;11438;52.044;8.716;2023-03-03T03:52:09;27.77;;;13.10;;
22543;SDS011;11438;52.044;8.716;2023-03-03T03:54:35;28.00;;;13.33;;
22543;SDS011;11438;52.044;8.716;2023-03-03T03:57:01;26.83;;;12.73;;
22543;SDS011;11438;52.044;8.716;2023-03-03T03:59:26;27.47;;;12.57;;
22543;SDS011;11438;52.044;8.716;2023-03-03T04:01:52;30.60;;;14.60;;
22543;SDS011;11438;52.044;8.716;2023-03-03T04:04:17;33.17;;;13.67;;
22543;SDS011;11438;52.044;8.716;2023-03-03T04:06:43;38.50;;;17.83;;
22543;SDS011;11438;52.044;8.716;2023-03-03T04:09:09;34.87;;;15.23;;
22543;SDS011;11438;52.044;8.716;2023-03-03T04:11:34;38.40;;;16.50;;
22543;SDS011;11438;52.044;8.716;2023-03-03T04:14:00;38.60;;;15.53;;
22543;SDS011;11438;52.044;8.716;2023-03-03T04:16:25;44.30;;;18.10;;
22543;SDS011;11438;52.044;8.716;2023-03-03T04:18:51;35.87;;;14.87;;
22543;SDS011;11438;52.044;8.716;2023-03-03T04:21:16;34.67;;;14.77;;
22543;SDS011;11438;52.044;8.716;2023-03-03T04:23:42;34.83;;;14.27;;
22543;SDS011;11438;52.044;8.716;2023-03-03T04:26:07;38.23;;;16.37;;
22543;SDS011;11438;52.044;8.716;2023-03-03T04:28:34;36.37;;;15.47;;
22543;SDS011;11438;52.044;8.716;2023-03-03T04:30:59;39.13;;;15.63;;
22543;SDS011;11438;52.044;8.716;2023-03-03T04:33:25;41.50;;;15.27;;
22543;SDS011;11438;52.044;8.716;2023-03-03T04:35:50;35.53;;;15.17;;
22543;SDS011;11438;52.044;8.716;2023-03-03T04:38:16;43.90;;;16.00;;
22543;SDS011;11438;52.044;8.716;2023-03-03T04:40:41;42.73;;;15.70;;
22543;SDS011;11438;52.044;8.716;2023-03-03T04:43:07;41.07;;;16.37;;
22543;SDS011;11438;52.044;8.716;2023-03-03T04:45:34;41.60;;;16.53;;
22543;SDS011;11438;52.044;8.716;2023-03-03T04:47:59;40.77;;;15.87;;
22543;SDS011;11438;52.044;8.716;2023-03-03T04:50:25;41.73;;;15.77;;
22543;SDS011;11438;52.044;8.716;2023-03-03T04:52:51;42.30;;;16.20;;
22543;SDS011;11438;52.044;8.716;2023-03-03T04:55:16;48.23;;;17.17;;
22543;SDS011;11438;52.044;8.716;2023-03-03T04:57:42;36.60;;;14.53;;
22543;SDS011;11438;52.044;8.716;2023-03-03T05:00:08;40.90;;;15.87;;
22543;SDS011;11438;52.044;8.716;2023-03-03T05:02:37;38.63;;;14.90;;
22543;SDS011;11438;52.044;8.716;2023-03-03T05:05:05;38.27;;;15.13;;
22543;SDS011;11438;52.044;8.716;2023-03-03T05:07:31;37.50;;;13.67;;
22543;SDS011;11438;52.044;8.716;2023-03-03T05:09:57;34.77;;;14.23;;
22543;SDS011;11438;52.044;8.716;2023-03-03T05:12:22;35.30;;;13.43;;
22543;SDS011;11438;52.044;8.716;2023-03-03T05:14:48;34.93;;;14.60;;
22543;SDS011;11438;52.044;8.716;2023-03-03T05:17:13;35.33;;;14.80;;
22543;SDS011;11438;52.044;8.716;2023-03-03T05:19:39;35.20;;;14.30;;
22543;SDS011;11438;52.044;8.716;2023-03-03T05:22:05;35.80;;;14.37;;
22543;SDS011;11438;52.044;8.716;2023-03-03T05:24:30;38.47;;;15.47;;
22543;SDS011;11438;52.044;8.716;2023-03-03T05:26:56;38.13;;;15.03;;
22543;SDS011;11438;52.044;8.716;2023-03-03T05:29:22;37.53;;;15.33;;
22543;SDS011;11438;52.044;8.716;2023-03-03T05:31:47;36.43;;;14.30;;
22543;SDS011;11438;52.044;8.716;2023-03-03T05:34:13;36.33;;;14.13;;
22543;SDS011;11438;52.044;8.716;2023-03-03T05:36:39;35.40;;;14.30;;
22543;SDS011;11438;52.044;8.716;2023-03-03T05:39:05;35.07;;;13.60;;
22543;SDS011;11438;52.044;8.716;2023-03-03T05:41:30;31.93;;;13.03;;
22543;SDS011;11438;52.044;8.716;2023-03-03T05:43:56;31.30;;;12.53;;
22543;SDS011;11438;52.044;8.716;2023-03-03T05:46:21;26.83;;;11.90;;
22543;SDS011;11438;52.044;8.716;2023-03-03T05:48:47;29.10;;;12.70;;
22543;SDS011;11438;52.044;8.716;2023-03-03T05:51:12;37.83;;;15.33;;
22543;SDS011;11438;52.044;8.716;2023-03-03T05:53:38;35.07;;;13.70;;
22543;SDS011;11438;52.044;8.716;2023-03-03T05:56:04;37.17;;;15.27;;
22543;SDS011;11438;52.044;8.716;2023-03-03T05:58:29;32.23;;;13.77;;
22543;SDS011;11438;52.044;8.716;2023-03-03T06:00:55;35.37;;;14.67;;
22543;SDS011;11438;52.044;8.716;2023-03-03T06:03:20;34.53;;;14.10;;
22543;SDS011;11438;52.044;8.716;2023-03-03T06:05:46;33.37;;;13.60;;
22543;SDS011;11438;52.044;8.716;2023-03-03T06:08:12;35.30;;;13.27;;
22543;SDS011;11438;52.044;8.716;2023-03-03T06:10:38;30.03;;;13.30;;
22543;SDS011;11438;52.044;8.716;2023-03-03T06:13:03;25.57;;;11.47;;
22543;SDS011;11438;52.044;8.716;2023-03-03T06:15:29;33.03;;;12.97;;
22543;SDS011;11438;52.044;8.716;2023-03-03T06:17:54;30.77;;;13.60;;
22543;SDS011;11438;52.044;8.716;2023-03-03T06:20:20;31.73;;;13.33;;
22543;SDS011;11438;52.044;8.716;2023-03-03T06:22:45;33.57;;;13.20;;
22543;SDS011;11438;52.044;8.716;2023-03-03T06:25:11;33.77;;;13.37;;
22543;SDS011;11438;52.044;8.716;2023-03-03T06:27:36;32.77;;;13.47;;
22543;SDS011;11438;52.044;8.716;2023-03-03T06:30:02;33.30;;;13.37;;
22543;SDS011;11438;52.044;8.716;2023-03-03T06:32:28;33.80;;;13.60;;
22543;SDS011;11438;52.044;8.716;2023-03-03T06:34:53;29.30;;;12.97;;
22543;SDS011;11438;52.044;8.716;2023-03-03T06:37:19;30.90;;;12.73;;
22543;SDS011;11438;52.044;8.716;2023-03-03T06:39:44;28.93;;;12.57;;
22543;SDS011;11438;52.044;8.716;2023-03-03T06:42:10;26.67;;;12.43;;
22543;SDS011;11438;52.044;8.716;2023-03-03T06:44:35;25.97;;;11.33;;
22543;SDS011;11438;52.044;8.716;2023-03-03T06:47:01;24.67;;;9.87;;
22543;SDS011;11438;52.044;8.716;2023-03-03T06:49:26;27.27;;;11.57;;
22543;SDS011;11438;52.044;8.716;2023-03-03T06:51:52;22.63;;;9.57;;
22543;SDS011;11438;52.044;8.716;2023-03-03T06:54:18;28.47;;;11.23;;
22543;SDS011;11438;52.044;8.716;2023-03-03T06:56:48;22.87;;;10.33;;
22543;SDS011;11438;52.044;8.716;2023-03-03T06:59:19;24.63;;;11.00;;
22543;SDS011;11438;52.044;8.716;2023-03-03T07:01:46;22.30;;;9.27;;
22543;SDS011;11438;52.044;8.716;2023-03-03T07:04:14;23.97;;;9.83;;
22543;SDS011;11438;52.044;8.716;2023-03-03T07:06:52;28.43;;;12.20;;
22543;SDS011;11438;52.044;8.716;2023-03-03T07:09:24;27.40;;;11.30;;
22543;SDS011;11438;52.044;8.716;2023-03-03T07:11:59;29.23;;;12.30;;
22543;SDS011;11438;52.044;8.716;2023-03-03T07:14:27;27.30;;;11.63;;
22543;SDS011;11438;52.044;8.716;2023-03-03T07:16:57;28.40;;;11.93;;
22543;SDS011;11438;52.044;8.716;2023-03-03T07:19:44;30.57;;;12.87;;
22543;SDS011;11438;52.044;8.716;2023-03-03T07:22:15;30.83;;;13.10;;
22543;SDS011;11438;52.044;8.716;2023-03-03T07:24:50;34.00;;;13.20;;
22543;SDS011;11438;52.044;8.716;2023-03-03T07:29:52;25.33;;;10.30;;
22543;SDS011;11438;52.044;8.716;2023-03-03T07:35:07;22.37;;;10.73;;
22543;SDS011;11438;52.044;8.716;2023-03-03T07:37:51;18.73;;;8.33;;
22543;SDS011;11438;52.044;8.716;2023-03-03T07:42:57;18.50;;;8.10;;
22543;SDS011;11438;52.044;8.716;2023-03-03T07:45:26;19.33;;;8.67;;
22543;SDS011;11438;52.044;8.716;2023-03-03T07:47:56;18.17;;;8.10;;
22543;SDS011;11438;52.044;8.716;2023-03-03T07:50:39;18.53;;;8.50;;
22543;SDS011;11438;52.044;8.716;2023-03-03T07:53:11;17.53;;;8.13;;
22543;SDS011;11438;52.044;8.716;2023-03-03T07:55:47;16.83;;;8.03;;
22543;SDS011;11438;52.044;8.716;2023-03-03T08:03:16;18.07;;;7.30;;
22543;SDS011;11438;52.044;8.716;2023-03-03T08:05:45;19.80;;;8.60;;
22543;SDS011;11438;52.044;8.716;2023-03-03T08:08:32;15.23;;;6.70;;
22543;SDS011;11438;52.044;8.716;2023-03-03T08:11:00;19.10;;;8.10;;
22543;SDS011;11438;52.044;8.716;2023-03-03T08:16:03;17.90;;;8.23;;
22543;SDS011;11438;52.044;8.716;2023-03-03T08:18:52;18.93;;;8.17;;
22543;SDS011;11438;52.044;8.716;2023-03-03T08:21:25;20.53;;;9.13;;
22543;SDS011;11438;52.044;8.716;2023-03-03T08:23:51;18.60;;;7.83;;
22543;SDS011;11438;52.044;8.716;2023-03-03T08:26:18;18.93;;;8.37;;
22543;SDS011;11438;52.044;8.716;2023-03-03T08:28:44;18.50;;;8.63;;
22543;SDS011;11438;52.044;8.716;2023-03-03T08:31:10;17.47;;;7.93;;
22543;SDS011;11438;52.044;8.716;2023-03-03T08:33:36;23.70;;;9.57;;
22543;SDS011;11438;52.044;8.716;2023-03-03T08:36:02;15.73;;;8.10;;
22543;SDS011;11438;52.044;8.716;2023-03-03T08:38:28;17.63;;;7.83;;
22543;SDS011;11438;52.044;8.716;2023-03-03T08:40:54;16.60;;;7.60;;
22543;SDS011;11438;52.044;8.716;2023-03-03T08:43:19;18.07;;;7.70;;
22543;SDS011;11438;52.044;8.716;2023-03-03T08:45:49;18.57;;;7.70;;
22543;SDS011;11438;52.044;8.716;2023-03-03T08:48:16;15.37;;;7.27;;
22543;SDS011;11438;52.044;8.716;2023-03-03T08:50:43;18.23;;;7.50;;
22543;SDS011;11438;52.044;8.716;2023-03-03T08:53:10;16.17;;;6.73;;
22543;SDS011;11438;52.044;8.716;2023-03-03T08:55:37;15.13;;;7.20;;
22543;SDS011;11438;52.044;8.716;2023-03-03T08:58:03;15.60;;;7.43;;
22543;SDS011;11438;52.044;8.716;2023-03-03T09:00:28;15.00;;;6.93;;
22543;SDS011;11438;52.044;8.716;2023-03-03T09:02:54;15.87;;;6.60;;
22543;SDS011;11438;52.044;8.716;2023-03-03T09:05:20;14.23;;;5.83;;
22543;SDS011;11438;52.044;8.716;2023-03-03T09:07:47;15.23;;;6.90;;
22543;SDS011;11438;52.044;8.716;2023-03-03T09:10:15;17.47;;;7.50;;
22543;SDS011;11438;52.044;8.716;2023-03-03T09:12:44;14.57;;;7.10;;
22543;SDS011;11438;52.044;8.716;2023-03-03T09:17:47;16.43;;;7.70;;
22543;SDS011;11438;52.044;8.716;2023-03-03T09:20:21;18.77;;;7.83;;
22543;SDS011;11438;52.044;8.716;2023-03-03T09:23:16;16.07;;;6.97;;
22543;SDS011;11438;52.044;8.716;2023-03-03T09:25:45;17.20;;;7.77;;
22543;SDS011;11438;52.044;8.716;2023-03-03T09:28:21;20.20;;;8.30;;
22543;SDS011;11438;52.044;8.716;2023-03-03T09:30:53;15.63;;;7.50;;
22543;SDS011;11438;52.044;8.716;2023-03-03T09:33:30;17.83;;;7.87;;
22543;SDS011;11438;52.044;8.716;2023-03-03T09:38:50;17.03;;;7.27;;
22543;SDS011;11438;52.044;8.716;2023-03-03T09:46:50;17.30;;;7.37;;
22543;SDS011;11438;52.044;8.716;2023-03-03T09:49:23;15.67;;;7.07;;
22543;SDS011;11438;52.044;8.716;2023-03-03T09:52:16;15.20;;;6.47;;
22543;SDS011;11438;52.044;8.716;2023-03-03T09:54:58;14.23;;;7.10;;
22543;SDS011;11438;52.044;8.716;2023-03-03T10:00:36;13.33;;;6.50;;
22543;SDS011;11438;52.044;8.716;2023-03-03T10:06:20;15.10;;;6.27;;
22543;SDS011;11438;52.044;8.716;2023-03-03T10:08:57;13.77;;;6.90;;
22543;SDS011;11438;52.044;8.716;2023-03-03T10:17:06;16.40;;;6.80;;
22543;SDS011;11438;52.044;8.716;2023-03-03T10:19:40;15.17;;;7.07;;
22543;SDS011;11438;52.044;8.716;2023-03-03T10:22:32;19.83;;;8.27;;
22543;SDS011;11438;52.044;8.716;2023-03-03T10:25:21;18.43;;;7.87;;
22543;SDS011;11438;52.044;8.716;2023-03-03T10:27:56;17.07;;;7.90;;
22543;SDS011;11438;52.044;8.716;2023-03-03T10:31:06;21.43;;;8.40;;
22543;SDS011;11438;52.044;8.716;2023-03-03T10:34:17;18.63;;;9.27;;
22543;SDS011;11438;52.044;8.716;2023-03-03T10:36:54;19.87;;;9.30;;
22543;SDS011;11438;52.044;8.716;2023-03-03T10:39:57;27.90;;;11.67;;
22543;SDS011;11438;52.044;8.716;2023-03-03T10:45:19;24.93;;;10.67;;
22543;SDS011;11438;52.044;8.716;2023-03-03T10:50:36;28.57;;;10.70;;
22543;SDS011;11438;52.044;8.716;2023-03-03T10:53:34;23.07;;;10.63;;
22543;SDS011;11438;52.044;8.716;2023-03-03T10:58:45;24.90;;;10.77;;
22543;SDS011;11438;52.044;8.716;2023-03-03T11:12:44;20.00;;;9.23;;
22543;SDS011;11438;52.044;8.716;2023-03-03T11:18:20;22.87;;;9.33;;
22543;SDS011;11438;52.044;8.716;2023-03-03T11:20:57;20.30;;;9.37;;
22543;SDS011;11438;52.044;8.716;2023-03-03T11:23:40;22.87;;;9.93;;
22543;SDS011;11438;52.044;8.716;2023-03-03T11:26:37;23.07;;;9.77;;
22543;SDS011;11438;52.044;8.716;2023-03-03T11:32:16;21.17;;;9.27;;
22543;SDS011;11438;52.044;8.716;2023-03-03T11:37:45;21.40;;;9.63;;
22543;SDS011;11438;52.044;8.716;2023-03-03T11:40:24;25.23;;;10.70;;
22543;SDS011;11438;52.044;8.716;2023-03-03T11:42:57;21.90;;;10.23;;
22543;SDS011;11438;52.044;8.716;2023-03-03T11:45:56;25.83;;;12.13;;
22543;SDS011;11438;52.044;8.716;2023-03-03T12:05:07;34.13;;;15.37;;
22543;SDS011;11438;52.044;8.716;2023-03-03T12:07:47;35.50;;;16.33;;
22543;SDS011;11438;52.044;8.716;2023-03-03T12:10:39;32.77;;;14.27;;
22543;SDS011;11438;52.044;8.716;2023-03-03T12:18:43;36.37;;;16.37;;
22543;SDS011;11438;52.044;8.716;2023-03-03T12:21:26;36.13;;;16.40;;
22543;SDS011;11438;52.044;8.716;2023-03-03T12:24:11;34.90;;;15.30;;
22543;SDS011;11438;52.044;8.716;2023-03-03T12:27:13;31.47;;;15.13;;
22543;SDS011;11438;52.044;8.716;2023-03-03T12:32:46;33.13;;;14.90;;
22543;SDS011;11438;52.044;8.716;2023-03-03T12:40:58;33.73;;;15.57;;
22543;SDS011;11438;52.044;8.716;2023-03-03T12:43:57;30.20;;;14.00;;
22543;SDS011;11438;52.044;8.716;2023-03-03T12:49:38;29.75;;;13.38;;
22543;SDS011;11438;52.044;8.716;2023-03-03T12:52:22;32.00;;;14.93;;
22543;SDS011;11438;52.044;8.716;2023-03-03T12:54:58;32.87;;;15.07;;
22543;SDS011;11438;52.044;8.716;2023-03-03T13:05:42;36.88;;;15.98;;
22543;SDS011;11438;52.044;8.716;2023-03-03T13:11:23;30.70;;;14.50;;
22543;SDS011;11438;52.044;8.716;2023-03-03T13:13:59;31.67;;;14.90;;
22543;SDS011;11438;52.044;8.716;2023-03-03T13:16:36;37.28;;;14.77;;
22543;SDS011;11438;52.044;8.716;2023-03-03T13:19:16;33.75;;;15.43;;
22543;SDS011;11438;52.044;8.716;2023-03-03T13:21:52;30.43;;;13.17;;
22543;SDS011;11438;52.044;8.716;2023-03-03T13:24:48;34.60;;;15.03;;
22543;SDS011;11438;52.044;8.716;2023-03-03T13:27:23;29.63;;;14.73;;
22543;SDS011;11438;52.044;8.716;2023-03-03T13:38:09;30.07;;;14.23;;
22543;SDS011;11438;52.044;8.716;2023-03-03T13:41:34;31.33;;;14.30;;
22543;SDS011;11438;52.044;8.716;2023-03-03T13:43:39;26.37;;;12.00;;
22543;SDS011;11438;52.044;8.716;2023-03-03T13:51:49;31.50;;;12.60;;
22543;SDS011;11438;52.044;8.716;2023-03-03T14:00:02;28.97;;;13.20;;
22543;SDS011;11438;52.044;8.716;2023-03-03T14:05:56;25.10;;;11.67;;
22543;SDS011;11438;52.044;8.716;2023-03-03T14:08:49;26.63;;;12.27;;
22543;SDS011;11438;52.044;8.716;2023-03-03T14:17:28;24.77;;;10.73;;
22543;SDS011;11438;52.044;8.716;2023-03-03T14:20:10;23.83;;;10.60;;
22543;SDS011;11438;52.044;8.716;2023-03-03T14:22:52;22.80;;;10.82;;
22543;SDS011;11438;52.044;8.716;2023-03-03T14:25:23;23.67;;;11.18;;
22543;SDS011;11438;52.044;8.716;2023-03-03T14:28:00;22.83;;;10.97;;
22543;SDS011;11438;52.044;8.716;2023-03-03T14:30:37;23.17;;;10.43;;
22543;SDS011;11438;52.044;8.716;2023-03-03T14:35:36;20.58;;;10.20;;
22543;SDS011;11438;52.044;8.716;2023-03-03T14:38:12;21.47;;;10.57;;
22543;SDS011;11438;52.044;8.716;2023-03-03T14:40:40;21.90;;;11.03;;
22543;SDS011;11438;52.044;8.716;2023-03-03T14:43:20;20.60;;;10.30;;
22543;SDS011;11438;52.044;8.716;2023-03-03T14:45:53;17.13;;;9.17;;
22543;SDS011;11438;52.044;8.716;2023-03-03T14:48:24;17.03;;;9.17;;
22543;SDS011;11438;52.044;8.716;2023-03-03T14:50:52;19.30;;;9.30;;
22543;SDS011;11438;52.044;8.716;2023-03-03T14:53:34;17.70;;;8.23;;
22543;SDS011;11438;52.044;8.716;2023-03-03T14:58:46;18.63;;;8.70;;
22543;SDS011;11438;52.044;8.716;2023-03-03T15:03:43;18.47;;;8.97;;
22543;SDS011;11438;52.044;8.716;2023-03-03T15:06:12;17.87;;;8.33;;
22543;SDS011;11438;52.044;8.716;2023-03-03T15:09:18;17.30;;;8.53;;
22543;SDS011;11438;52.044;8.716;2023-03-03T15:11:58;17.13;;;8.67;;
22543;SDS011;11438;52.044;8.716;2023-03-03T15:14:31;22.07;;;9.73;;
22543;SDS011;11438;52.044;8.716;2023-03-03T15:17:15;18.30;;;8.60;;
22543;SDS011;11438;52.044;8.716;2023-03-03T15:19:55;20.43;;;9.20;;
22543;SDS011;11438;52.044;8.716;2023-03-03T15:27:44;17.43;;;9.07;;
22543;SDS011;11438;52.044;8.716;2023-03-03T15:36:24;16.47;;;8.80;;
22543;SDS011;11438;52.044;8.716;2023-03-03T15:39:15;14.07;;;7.80;;
22543;SDS011;11438;52.044;8.716;2023-03-03T15:50:12;15.87;;;8.53;;
22543;SDS011;11438;52.044;8.716;2023-03-03T15:53:14;18.57;;;9.80;;
22543;SDS011;11438;52.044;8.716;2023-03-03T16:01:32;20.60;;;9.57;;
22543;SDS011;11438;52.044;8.716;2023-03-03T16:04:12;19.97;;;9.63;;
22543;SDS011;11438;52.044;8.716;2023-03-03T16:06:48;18.23;;;10.03;;
22543;SDS011;11438;52.044;8.716;2023-03-03T16:09:31;18.73;;;9.60;;
22543;SDS011;11438;52.044;8.716;2023-03-03T16:26:14;18.83;;;8.80;;
22543;SDS011;11438;52.044;8.716;2023-03-03T16:29:13;19.10;;;9.60;;
22543;SDS011;11438;52.044;8.716;2023-03-03T16:34:38;15.47;;;9.00;;
22543;SDS011;11438;52.044;8.716;2023-03-03T16:37:35;16.67;;;8.07;;
22543;SDS011;11438;52.044;8.716;2023-03-03T16:42:56;17.00;;;8.37;;
22543;SDS011;11438;52.044;8.716;2023-03-03T16:45:35;15.83;;;8.17;;
22543;SDS011;11438;52.044;8.716;2023-03-03T16:50:54;15.77;;;8.03;;
22543;SDS011;11438;52.044;8.716;2023-03-03T16:56:26;12.37;;;6.80;;
22543;SDS011;11438;52.044;8.716;2023-03-03T16:59:02;15.63;;;8.17;;
22543;SDS011;11438;52.044;8.716;2023-03-03T17:04:50;16.20;;;8.07;;
22543;SDS011;11438;52.044;8.716;2023-03-03T17:07:31;15.13;;;7.83;;
22543;SDS011;11438;52.044;8.716;2023-03-03T17:12:55;15.20;;;8.50;;
22543;SDS011;11438;52.044;8.716;2023-03-03T17:15:28;15.33;;;8.33;;
22543;SDS011;11438;52.044;8.716;2023-03-03T17:20:50;14.50;;;7.70;;
22543;SDS011;11438;52.044;8.716;2023-03-03T17:23:26;20.37;;;8.03;;
22543;SDS011;11438;52.044;8.716;2023-03-03T17:26:17;16.30;;;7.87;;
22543;SDS011;11438;52.044;8.716;2023-03-03T17:31:32;14.40;;;7.93;;
22543;SDS011;11438;52.044;8.716;2023-03-03T17:34:21;16.70;;;8.07;;
22543;SDS011;11438;52.044;8.716;2023-03-03T17:39:47;13.60;;;7.37;;
22543;SDS011;11438;52.044;8.716;2023-03-03T17:42:49;19.83;;;9.47;;
22543;SDS011;11438;52.044;8.716;2023-03-03T17:45:18;19.23;;;9.60;;
22543;SDS011;11438;52.044;8.716;2023-03-03T17:53:11;22.77;;;9.80;;
22543;SDS011;11438;52.044;8.716;2023-03-03T17:58:29;22.57;;;10.40;;
22543;SDS011;11438;52.044;8.716;2023-03-03T18:12:46;21.83;;;11.40;;
22543;SDS011;11438;52.044;8.716;2023-03-03T18:15:43;22.77;;;11.13;;
22543;SDS011;11438;52.044;8.716;2023-03-03T18:18:33;25.93;;;12.13;;
22543;SDS011;11438;52.044;8.716;2023-03-03T18:23:48;25.23;;;12.13;;
22543;SDS011;11438;52.044;8.716;2023-03-03T18:29:11;30.07;;;14.20;;
22543;SDS011;11438;52.044;8.716;2023-03-03T18:34:28;27.87;;;14.10;;
22543;SDS011;11438;52.044;8.716;2023-03-03T18:37:00;33.67;;;15.37;;
22543;SDS011;11438;52.044;8.716;2023-03-03T18:42:03;31.57;;;14.70;;
22543;SDS011;11438;52.044;8.716;2023-03-03T18:44:34;26.63;;;12.57;;
22543;SDS011;11438;52.044;8.716;2023-03-03T18:47:00;26.40;;;13.37;;
22543;SDS011;11438;52.044;8.716;2023-03-03T18:53:04;27.23;;;13.37;;
22543;SDS011;11438;52.044;8.716;2023-03-03T18:55:48;29.60;;;13.00;;
22543;SDS011;11438;52.044;8.716;2023-03-03T19:01:04;30.13;;;13.80;;
22543;SDS011;11438;52.044;8.716;2023-03-03T19:08:59;29.57;;;13.17;;
22543;SDS011;11438;52.044;8.716;2023-03-03T19:11:41;29.23;;;12.87;;
22543;SDS011;11438;52.044;8.716;2023-03-03T19:16:41;26.27;;;12.33;;
22543;SDS011;11438;52.044;8.716;2023-03-03T19:19:11;28.70;;;12.73;;
22543;SDS011;11438;52.044;8.716;2023-03-03T19:21:39;32.43;;;14.27;;
22543;SDS011;11438;52.044;8.716;2023-03-03T19:24:23;27.17;;;12.93;;
22543;SDS011;11438;52.044;8.716;2023-03-03T19:32:16;33.33;;;14.73;;
22543;SDS011;11438;52.044;8.716;2023-03-03T19:38:06;26.60;;;13.30;;